createdAt,value
2023-03-26T00:00:09.436Z,12.40
2023-03-26T00:01:09.471Z,17.00
2023-03-26T00:02:09.518Z,16.30
2023-03-26T00:03:09.456Z,18.50
2023-03-26T00:04:09.402Z,17.10
2023-03-26T00:05:09.480Z,16.80
2023-03-26T00:06:09.347Z,17.00
2023-03-26T00:07:09.388Z,12.80
2023-03-26T00:08:09.318Z,13.00
2023-03-26T00:09:10.111Z,19.60
2023-03-26T00:10:09.342Z,16.20
2023-03-26T00:11:09.395Z,17.70
2023-03-26T00:12:09.276Z,15.80
2023-03-26T00:13:09.311Z,16.80
2023-03-26T00:14:09.300Z,19.60
2023-03-26T00:15:09.264Z,14.10
2023-03-26T00:16:09.298Z,14.90
2023-03-26T00:17:09.976Z,10.10
2023-03-26T00:18:09.241Z,17.80
2023-03-26T00:19:09.236Z,15.80
2023-03-26T00:20:10.649Z,12.30
2023-03-26T00:21:09.234Z,17.90
2023-03-26T00:22:09.180Z,13.20
2023-03-26T00:23:09.197Z,13.00
2023-03-26T00:24:09.136Z,16.30
2023-03-26T00:25:09.170Z,16.60
2023-03-26T00:26:09.085Z,15.00
2023-03-26T00:27:09.134Z,14.80
2023-03-26T00:28:09.134Z,12.00
2023-03-26T00:29:09.089Z,8.20
2023-03-26T00:30:09.035Z,14.30
2023-03-26T00:31:09.170Z,12.10
2023-03-26T00:32:09.392Z,13.80
2023-03-26T00:33:09.087Z,12.40
2023-03-26T00:34:09.024Z,10.10
2023-03-26T00:35:09.053Z,14.50
2023-03-26T00:36:09.035Z,15.30
2023-03-26T00:37:08.967Z,12.70
2023-03-26T00:38:08.932Z,13.50
2023-03-26T00:39:08.971Z,12.70
2023-03-26T00:40:08.920Z,12.10
2023-03-26T00:41:08.989Z,14.80
2023-03-26T00:42:08.910Z,14.40
2023-03-26T00:43:08.898Z,10.80
2023-03-26T00:44:08.854Z,11.90
2023-03-26T00:45:08.900Z,11.30
2023-03-26T00:46:08.878Z,14.80
2023-03-26T00:47:08.960Z,10.50
2023-03-26T00:48:08.860Z,13.60
2023-03-26T00:49:08.818Z,11.30
2023-03-26T00:50:08.776Z,13.20
2023-03-26T00:51:08.839Z,11.20
2023-03-26T00:52:08.836Z,8.00
2023-03-26T00:53:08.844Z,12.00
2023-03-26T00:54:08.792Z,11.90
2023-03-26T00:55:08.740Z,10.50
2023-03-26T00:56:08.742Z,9.70
2023-03-26T00:57:08.727Z,10.10
2023-03-26T00:58:08.679Z,12.40
2023-03-26T00:59:08.756Z,9.70
2023-03-26T01:00:08.682Z,9.30
2023-03-26T01:01:08.723Z,9.30
2023-03-26T01:02:08.621Z,10.00
2023-03-26T01:03:08.736Z,9.10
2023-03-26T01:04:09.295Z,8.40
2023-03-26T01:05:08.735Z,10.60
2023-03-26T01:06:08.592Z,12.40
2023-03-26T01:07:08.588Z,7.60
2023-03-26T01:08:08.573Z,8.60
2023-03-26T01:09:08.561Z,10.20
2023-03-26T01:10:08.523Z,10.10
2023-03-26T01:11:08.640Z,13.10
2023-03-26T01:12:08.499Z,10.00
2023-03-26T01:13:08.532Z,9.80
2023-03-26T01:14:08.503Z,9.30
2023-03-26T01:15:08.485Z,9.70
2023-03-26T01:16:08.498Z,8.90
2023-03-26T01:17:08.591Z,9.90
2023-03-26T01:18:08.445Z,13.10
2023-03-26T01:19:08.436Z,10.40
2023-03-26T01:20:08.439Z,8.30
2023-03-26T01:21:08.405Z,8.50
2023-03-26T01:22:08.369Z,7.60
2023-03-26T01:23:08.518Z,9.00
2023-03-26T01:24:08.342Z,10.00
2023-03-26T01:25:08.383Z,10.20
2023-03-26T01:26:08.333Z,9.10
2023-03-26T01:27:08.327Z,8.00
2023-03-26T01:28:08.329Z,8.00
2023-03-26T01:29:08.376Z,8.20
2023-03-26T01:30:08.268Z,10.30
2023-03-26T01:31:08.300Z,9.20
2023-03-26T01:32:08.234Z,11.00
2023-03-26T01:33:08.321Z,9.60
2023-03-26T01:34:08.229Z,8.20
2023-03-26T01:35:08.350Z,5.80
2023-03-26T01:36:08.247Z,8.30
2023-03-26T01:37:08.193Z,8.50
2023-03-26T01:38:08.149Z,8.00
2023-03-26T01:39:08.193Z,9.70
2023-03-26T01:40:08.132Z,9.00
2023-03-26T01:41:08.204Z,10.90
2023-03-26T01:42:08.131Z,9.30
2023-03-26T01:43:08.116Z,10.10
2023-03-26T01:44:08.103Z,10.80
2023-03-26T01:45:08.090Z,8.80
2023-03-26T01:46:08.210Z,11.30
2023-03-26T01:47:08.214Z,8.10
2023-03-26T01:48:08.045Z,10.00
2023-03-26T01:49:08.046Z,10.90
2023-03-26T01:50:07.997Z,11.20
2023-03-26T01:51:08.046Z,6.90
2023-03-26T01:52:07.972Z,10.10
2023-03-26T01:53:08.042Z,11.90
2023-03-26T01:54:07.970Z,9.70
2023-03-26T01:55:07.960Z,9.60
2023-03-26T01:56:07.941Z,10.70
2023-03-26T01:57:08.027Z,8.00
2023-03-26T01:58:07.893Z,10.90
2023-03-26T01:59:08.050Z,7.90
2023-03-26T02:00:07.866Z,9.80
2023-03-26T02:01:07.902Z,9.20
2023-03-26T02:02:07.907Z,12.20
2023-03-26T02:03:07.936Z,11.20
2023-03-26T02:04:07.813Z,13.80
2023-03-26T02:05:07.963Z,10.10
2023-03-26T02:06:07.815Z,11.30
2023-03-26T02:07:07.795Z,10.60
2023-03-26T02:08:07.786Z,9.20
2023-03-26T02:09:07.772Z,14.40
2023-03-26T02:10:07.734Z,6.80
2023-03-26T02:11:07.804Z,9.00
2023-03-26T02:12:07.708Z,11.40
2023-03-26T02:13:07.743Z,11.50
2023-03-26T02:14:07.721Z,7.40
2023-03-26T02:15:07.694Z,11.50
2023-03-26T02:16:07.711Z,10.80
2023-03-26T02:17:07.778Z,12.80
2023-03-26T02:18:07.625Z,10.40
2023-03-26T02:19:07.664Z,10.50
2023-03-26T02:20:07.637Z,10.00
2023-03-26T02:21:07.640Z,7.20
2023-03-26T02:22:07.576Z,9.50
2023-03-26T02:23:07.651Z,14.30
2023-03-26T02:24:07.538Z,10.80
2023-03-26T02:25:07.586Z,8.60
2023-03-26T02:26:07.541Z,8.20
2023-03-26T02:27:07.533Z,10.30
2023-03-26T02:28:07.514Z,13.90
2023-03-26T02:29:07.533Z,10.50
2023-03-26T02:30:07.470Z,9.60
2023-03-26T02:31:07.513Z,10.80
2023-03-26T02:32:07.440Z,13.50
2023-03-26T02:33:07.521Z,10.40
2023-03-26T02:34:07.465Z,9.10
2023-03-26T02:35:07.500Z,11.70
2023-03-26T02:36:07.487Z,10.30
2023-03-26T02:37:07.415Z,9.50
2023-03-26T02:38:07.358Z,11.90
2023-03-26T02:39:07.402Z,10.60
2023-03-26T02:40:07.355Z,11.90
2023-03-26T02:41:07.491Z,12.30
2023-03-26T02:42:07.340Z,10.00
2023-03-26T02:43:07.320Z,10.10
2023-03-26T02:44:07.337Z,11.50
2023-03-26T02:45:07.300Z,8.40
2023-03-26T02:46:07.310Z,10.70
2023-03-26T02:47:07.347Z,8.30
2023-03-26T02:48:07.241Z,11.20
2023-03-26T02:49:07.273Z,10.50
2023-03-26T02:50:07.238Z,10.20
2023-03-26T02:51:07.229Z,11.20
2023-03-26T02:52:07.176Z,11.20
2023-03-26T02:53:07.245Z,8.00
2023-03-26T02:54:07.257Z,11.60
2023-03-26T02:55:07.173Z,11.50
2023-03-26T02:56:07.153Z,8.40
2023-03-26T02:57:07.170Z,9.40
2023-03-26T02:58:07.096Z,11.60
2023-03-26T02:59:07.276Z,8.50
2023-03-26T03:00:07.065Z,13.70
2023-03-26T03:01:07.158Z,10.30
2023-03-26T03:02:07.112Z,12.40
2023-03-26T03:03:07.163Z,8.50
2023-03-26T03:04:07.040Z,12.20
2023-03-26T03:05:07.065Z,11.10
2023-03-26T03:06:06.990Z,11.40
2023-03-26T03:07:07.033Z,12.40
2023-03-26T03:08:06.991Z,12.60
2023-03-26T03:09:06.989Z,10.90
2023-03-26T03:10:06.942Z,8.60
2023-03-26T03:11:07.090Z,15.20
2023-03-26T03:12:06.909Z,12.10
2023-03-26T03:13:06.986Z,12.30
2023-03-26T03:14:06.912Z,11.30
2023-03-26T03:15:06.897Z,11.60
2023-03-26T03:16:06.894Z,11.60
2023-03-26T03:17:06.957Z,12.30
2023-03-26T03:18:06.884Z,12.70
2023-03-26T03:19:06.892Z,11.60
2023-03-26T03:20:06.823Z,11.70
2023-03-26T03:21:06.857Z,10.50
2023-03-26T03:22:06.812Z,11.00
2023-03-26T03:23:06.841Z,8.60
2023-03-26T03:24:06.765Z,10.30
2023-03-26T03:25:06.800Z,13.20
2023-03-26T03:26:06.759Z,10.70
2023-03-26T03:27:06.748Z,12.20
2023-03-26T03:28:06.743Z,9.90
2023-03-26T03:29:06.839Z,11.60
2023-03-26T03:30:06.678Z,12.20
2023-03-26T03:31:06.777Z,12.70
2023-03-26T03:32:06.659Z,14.60
2023-03-26T03:33:06.739Z,14.40
2023-03-26T03:34:06.654Z,18.70
2023-03-26T03:35:06.682Z,11.40
2023-03-26T03:36:06.669Z,12.40
2023-03-26T03:37:06.629Z,16.20
2023-03-26T03:38:06.577Z,15.50
2023-03-26T03:39:06.618Z,15.80
2023-03-26T03:40:06.554Z,14.20
2023-03-26T03:41:06.718Z,14.60
2023-03-26T03:42:06.547Z,13.20
2023-03-26T03:43:06.536Z,13.60
2023-03-26T03:44:06.524Z,15.00
2023-03-26T03:45:06.511Z,15.00
2023-03-26T03:46:06.497Z,9.30
2023-03-26T03:47:06.564Z,13.90
2023-03-26T03:48:06.524Z,16.00
2023-03-26T03:49:06.482Z,16.60
2023-03-26T03:50:06.447Z,15.30
2023-03-26T03:51:06.444Z,16.90
2023-03-26T03:52:06.418Z,13.80
2023-03-26T03:53:06.537Z,13.00
2023-03-26T03:54:06.364Z,14.10
2023-03-26T03:55:06.408Z,15.60
2023-03-26T03:56:06.361Z,14.60
2023-03-26T03:57:06.413Z,15.50
2023-03-26T03:58:06.307Z,17.10
2023-03-26T03:59:06.464Z,16.20
2023-03-26T04:00:06.975Z,17.70
2023-03-26T04:01:06.328Z,23.40
2023-03-26T04:02:06.282Z,19.80
2023-03-26T04:03:06.484Z,14.50
2023-03-26T04:04:06.391Z,16.90
2023-03-26T04:05:06.357Z,21.00
2023-03-26T04:06:06.201Z,17.20
2023-03-26T04:07:06.244Z,18.50
2023-03-26T04:08:06.178Z,13.80
2023-03-26T04:09:06.223Z,20.20
2023-03-26T04:10:06.177Z,16.50
2023-03-26T04:11:06.208Z,18.80
2023-03-26T04:12:06.115Z,12.60
2023-03-26T04:13:06.163Z,15.60
2023-03-26T04:14:06.122Z,21.00
2023-03-26T04:15:06.110Z,21.10
2023-03-26T04:16:06.123Z,22.50
2023-03-26T04:17:06.127Z,16.90
2023-03-26T04:18:06.076Z,19.10
2023-03-26T04:19:06.079Z,18.70
2023-03-26T04:20:06.018Z,19.50
2023-03-26T04:21:06.065Z,19.50
2023-03-26T04:22:06.012Z,19.10
2023-03-26T04:23:06.119Z,20.30
2023-03-26T04:24:05.988Z,20.50
2023-03-26T04:25:05.971Z,23.50
2023-03-26T04:26:05.938Z,22.10
2023-03-26T04:27:05.978Z,21.20
2023-03-26T04:28:05.937Z,22.40
2023-03-26T04:29:05.955Z,23.40
2023-03-26T04:30:05.881Z,18.50
2023-03-26T04:31:05.977Z,23.50
2023-03-26T04:32:05.857Z,18.80
2023-03-26T04:33:05.942Z,23.50
2023-03-26T04:34:05.892Z,24.00
2023-03-26T04:35:05.882Z,26.70
2023-03-26T04:36:05.862Z,27.50
2023-03-26T04:37:05.833Z,29.00
2023-03-26T04:38:05.775Z,20.50
2023-03-26T04:39:05.814Z,21.50
2023-03-26T04:40:05.757Z,24.90
2023-03-26T04:41:05.848Z,25.60
2023-03-26T04:42:05.763Z,20.10
2023-03-26T04:43:05.737Z,26.10
2023-03-26T04:44:05.748Z,28.30
2023-03-26T04:45:05.690Z,28.20
2023-03-26T04:46:05.697Z,27.40
2023-03-26T04:47:05.722Z,29.80
2023-03-26T04:48:05.705Z,25.30
2023-03-26T04:49:05.654Z,23.90
2023-03-26T04:50:05.672Z,20.30
2023-03-26T04:51:05.611Z,26.30
2023-03-26T04:52:05.654Z,29.40
2023-03-26T04:53:05.615Z,19.00
2023-03-26T04:54:05.589Z,28.50
2023-03-26T04:55:05.571Z,22.10
2023-03-26T04:56:05.559Z,28.50
2023-03-26T04:57:05.587Z,30.50
2023-03-26T04:58:05.626Z,32.00
2023-03-26T04:59:05.617Z,27.10
2023-03-26T05:00:05.515Z,25.50
2023-03-26T05:01:10.128Z,33.20
2023-03-26T05:02:06.507Z,33.40
2023-03-26T05:03:05.496Z,19.30
2023-03-26T05:04:05.531Z,24.80
2023-03-26T05:05:05.436Z,28.30
2023-03-26T05:06:05.433Z,29.60
2023-03-26T05:07:05.416Z,28.20
2023-03-26T05:08:05.402Z,35.30
2023-03-26T05:09:05.389Z,31.90
2023-03-26T05:10:05.406Z,25.00
2023-03-26T05:11:05.450Z,26.50
2023-03-26T05:12:05.373Z,33.20
2023-03-26T05:13:05.306Z,30.60
2023-03-26T05:14:05.319Z,32.70
2023-03-26T05:15:05.326Z,23.70
2023-03-26T05:16:05.427Z,30.00
2023-03-26T05:17:05.277Z,26.30
2023-03-26T05:18:05.336Z,30.10
2023-03-26T05:19:05.265Z,31.00
2023-03-26T05:20:05.235Z,19.40
2023-03-26T05:21:05.241Z,24.10
2023-03-26T05:22:05.243Z,23.60
2023-03-26T05:23:05.234Z,24.80
2023-03-26T05:24:05.224Z,21.50
2023-03-26T05:25:05.219Z,17.80
2023-03-26T05:26:05.274Z,21.90
2023-03-26T05:27:05.143Z,21.80
2023-03-26T05:28:05.136Z,22.70
2023-03-26T05:29:05.285Z,24.80
2023-03-26T05:30:05.137Z,20.90
2023-03-26T05:31:05.075Z,23.50
2023-03-26T05:32:05.140Z,20.80
2023-03-26T05:33:05.167Z,28.10
2023-03-26T05:34:05.080Z,23.90
2023-03-26T05:35:05.048Z,19.30
2023-03-26T05:36:05.059Z,23.00
2023-03-26T05:37:04.984Z,23.90
2023-03-26T05:38:04.996Z,28.90
2023-03-26T05:39:05.004Z,18.60
2023-03-26T05:40:04.975Z,22.40
2023-03-26T05:41:05.007Z,26.50
2023-03-26T05:42:04.975Z,29.60
2023-03-26T05:43:04.919Z,23.20
2023-03-26T05:44:04.948Z,20.60
2023-03-26T05:45:04.886Z,23.30
2023-03-26T05:46:04.940Z,28.30
2023-03-26T05:47:04.922Z,27.70
2023-03-26T05:48:05.014Z,25.10
2023-03-26T05:49:04.853Z,28.20
2023-03-26T05:50:04.873Z,30.70
2023-03-26T05:51:04.809Z,32.50
2023-03-26T05:52:04.848Z,33.10
2023-03-26T05:53:04.813Z,30.90
2023-03-26T05:54:04.787Z,27.90
2023-03-26T05:55:04.775Z,24.80
2023-03-26T05:56:04.767Z,28.00
2023-03-26T05:57:04.756Z,35.60
2023-03-26T05:58:04.767Z,31.10
2023-03-26T05:59:04.806Z,30.80
2023-03-26T06:00:04.733Z,31.90
2023-03-26T06:01:04.668Z,24.30
2023-03-26T06:02:04.682Z,27.10
2023-03-26T06:03:04.798Z,31.90
2023-03-26T06:04:04.760Z,36.10
2023-03-26T06:05:04.642Z,33.10
2023-03-26T06:06:04.628Z,35.20
2023-03-26T06:07:04.611Z,30.70
2023-03-26T06:08:04.599Z,33.30
2023-03-26T06:09:04.610Z,42.40
2023-03-26T06:10:04.613Z,33.10
2023-03-26T06:11:04.575Z,36.10
2023-03-26T06:12:04.574Z,31.30
2023-03-26T06:13:04.508Z,31.80
2023-03-26T06:14:04.530Z,31.00
2023-03-26T06:15:04.517Z,36.40
2023-03-26T06:16:04.544Z,30.90
2023-03-26T06:17:04.525Z,32.10
2023-03-26T06:18:04.549Z,30.80
2023-03-26T06:19:04.456Z,30.70
2023-03-26T06:20:04.448Z,31.30
2023-03-26T06:21:04.436Z,36.30
2023-03-26T06:22:04.443Z,28.80
2023-03-26T06:23:04.408Z,33.30
2023-03-26T06:24:04.427Z,33.80
2023-03-26T06:25:04.354Z,31.30
2023-03-26T06:26:04.360Z,33.30
2023-03-26T06:27:04.353Z,29.80
2023-03-26T06:28:04.338Z,30.60
2023-03-26T06:29:04.373Z,30.40
2023-03-26T06:30:04.343Z,32.20
2023-03-26T06:31:04.319Z,30.60
2023-03-26T06:32:16.291Z,32.50
2023-03-26T06:33:05.310Z,26.80
2023-03-26T06:34:04.260Z,28.30
2023-03-26T06:35:04.366Z,28.40
2023-03-26T06:36:04.326Z,32.90
2023-03-26T06:37:04.190Z,30.40
2023-03-26T06:38:04.207Z,31.20
2023-03-26T06:39:07.557Z,33.40
2023-03-26T06:40:04.186Z,35.10
2023-03-26T06:41:04.214Z,34.00
2023-03-26T06:42:04.230Z,29.10
2023-03-26T06:43:06.831Z,28.40
2023-03-26T06:44:05.172Z,28.20
2023-03-26T06:45:04.089Z,33.50
2023-03-26T06:46:04.277Z,32.60
2023-03-26T06:47:04.129Z,29.60
2023-03-26T06:48:04.144Z,32.00
2023-03-26T06:49:04.093Z,31.50
2023-03-26T06:50:04.076Z,35.80
2023-03-26T06:51:04.021Z,32.50
2023-03-26T06:52:04.054Z,33.30
2023-03-26T06:53:04.026Z,26.00
2023-03-26T06:54:04.000Z,31.50
2023-03-26T06:55:03.999Z,29.10
2023-03-26T06:56:03.970Z,27.70
2023-03-26T06:57:03.973Z,30.20
2023-03-26T06:58:03.970Z,28.70
2023-03-26T06:59:03.932Z,33.00
2023-03-26T07:00:03.967Z,28.20
2023-03-26T07:01:03.912Z,29.30
2023-03-26T07:02:03.892Z,24.10
2023-03-26T07:03:03.894Z,27.40
2023-03-26T07:04:03.887Z,34.40
2023-03-26T07:05:03.888Z,35.90
2023-03-26T07:06:03.865Z,34.50
2023-03-26T07:07:03.804Z,31.10
2023-03-26T07:08:03.825Z,31.70
2023-03-26T07:09:03.799Z,28.20
2023-03-26T07:10:03.838Z,30.40
2023-03-26T07:11:03.804Z,28.70
2023-03-26T07:12:03.792Z,29.60
2023-03-26T07:13:03.732Z,27.90
2023-03-26T07:14:03.737Z,31.20
2023-03-26T07:15:03.740Z,32.20
2023-03-26T07:16:03.733Z,31.20
2023-03-26T07:17:03.836Z,30.50
2023-03-26T07:18:03.765Z,29.50
2023-03-26T07:19:03.652Z,32.90
2023-03-26T07:20:03.713Z,26.90
2023-03-26T07:21:03.663Z,31.80
2023-03-26T07:22:03.645Z,32.10
2023-03-26T07:23:03.653Z,29.30
2023-03-26T07:24:03.654Z,30.00
2023-03-26T07:25:03.591Z,31.30
2023-03-26T07:26:03.586Z,30.60
2023-03-26T07:27:03.584Z,26.90
2023-03-26T07:28:03.556Z,27.70
2023-03-26T07:29:05.306Z,35.30
2023-03-26T07:30:03.593Z,29.60
2023-03-26T07:31:03.503Z,30.20
2023-03-26T07:32:03.573Z,25.10
2023-03-26T07:33:03.532Z,26.50
2023-03-26T07:34:03.497Z,26.40
2023-03-26T07:35:03.559Z,24.20
2023-03-26T07:36:03.472Z,31.10
2023-03-26T07:37:03.616Z,26.20
2023-03-26T07:38:03.487Z,30.10
2023-03-26T07:39:03.393Z,25.10
2023-03-26T07:40:03.406Z,30.00
2023-03-26T07:41:03.432Z,26.60
2023-03-26T07:42:03.393Z,26.10
2023-03-26T07:43:03.406Z,26.50
2023-03-26T07:44:03.366Z,29.80
2023-03-26T07:45:03.355Z,31.20
2023-03-26T07:46:03.376Z,26.70
2023-03-26T07:47:03.350Z,30.60
2023-03-26T07:48:03.337Z,24.20
2023-03-26T07:49:03.280Z,24.70
2023-03-26T07:50:03.286Z,27.30
2023-03-26T07:51:03.236Z,22.90
2023-03-26T07:52:03.259Z,25.40
2023-03-26T07:53:03.241Z,24.40
2023-03-26T07:54:03.226Z,24.00
2023-03-26T07:55:03.190Z,27.50
2023-03-26T07:56:03.195Z,23.30
2023-03-26T07:57:04.357Z,23.20
2023-03-26T07:58:07.496Z,23.60
2023-03-26T07:59:03.154Z,21.40
2023-03-26T08:00:03.175Z,22.40
2023-03-26T08:01:03.129Z,18.60
2023-03-26T08:02:03.108Z,19.70
2023-03-26T08:03:03.276Z,20.00
2023-03-26T08:04:23.606Z,20.30
2023-03-26T08:05:04.220Z,20.70
2023-03-26T08:06:03.088Z,28.80
2023-03-26T08:07:03.005Z,22.10
2023-03-26T08:08:03.068Z,22.00
2023-03-26T08:09:03.008Z,22.40
2023-03-26T08:10:02.997Z,20.60
2023-03-26T08:11:03.027Z,20.20
2023-03-26T08:12:03.224Z,23.90
2023-03-26T08:13:02.922Z,23.20
2023-03-26T08:14:02.963Z,21.40
2023-03-26T08:15:02.925Z,21.40
2023-03-26T08:16:03.023Z,24.20
2023-03-26T08:17:03.030Z,22.80
2023-03-26T08:18:02.994Z,20.90
2023-03-26T08:19:02.860Z,21.90
2023-03-26T08:20:02.897Z,22.60
2023-03-26T08:21:02.828Z,19.00
2023-03-26T08:22:02.857Z,21.30
2023-03-26T08:23:02.886Z,19.40
2023-03-26T08:24:02.823Z,18.30
2023-03-26T08:25:02.789Z,18.90
2023-03-26T08:26:02.841Z,18.60
2023-03-26T08:27:02.737Z,18.50
2023-03-26T08:28:02.743Z,19.10
2023-03-26T08:29:02.774Z,17.10
2023-03-26T08:30:02.763Z,20.80
2023-03-26T08:31:02.765Z,20.80
2023-03-26T08:32:02.746Z,18.30
2023-03-26T08:33:02.686Z,17.70
2023-03-26T08:34:02.677Z,19.00
2023-03-26T08:35:02.820Z,15.40
2023-03-26T08:36:02.707Z,20.20
2023-03-26T08:37:02.663Z,15.90
2023-03-26T08:38:02.642Z,14.70
2023-03-26T08:39:02.579Z,16.00
2023-03-26T08:40:02.637Z,16.20
2023-03-26T08:41:02.627Z,16.70
2023-03-26T08:42:02.563Z,17.00
2023-03-26T08:43:02.547Z,18.10
2023-03-26T08:44:02.581Z,19.40
2023-03-26T08:45:02.517Z,17.20
2023-03-26T08:46:02.550Z,17.80
2023-03-26T08:47:02.541Z,15.90
2023-03-26T08:48:02.526Z,16.40
2023-03-26T08:49:02.472Z,14.90
2023-03-26T08:50:02.511Z,18.30
2023-03-26T08:51:02.479Z,15.80
2023-03-26T08:52:02.487Z,18.80
2023-03-26T08:53:02.551Z,18.20
2023-03-26T08:54:02.781Z,17.90
2023-03-26T08:55:02.429Z,15.90
2023-03-26T08:56:02.418Z,18.00
2023-03-26T08:57:02.444Z,15.00
2023-03-26T08:58:02.859Z,20.10
2023-03-26T08:59:02.406Z,19.70
2023-03-26T09:00:03.059Z,17.00
2023-03-26T09:01:02.379Z,18.50
2023-03-26T09:02:02.416Z,17.60
2023-03-26T09:03:02.344Z,19.50
2023-03-26T09:04:02.357Z,14.80
2023-03-26T09:05:02.361Z,14.20
2023-03-26T09:06:02.266Z,14.40
2023-03-26T09:07:02.289Z,19.20
2023-03-26T09:08:02.228Z,15.90
2023-03-26T09:09:02.279Z,15.50
2023-03-26T09:10:02.234Z,13.60
2023-03-26T09:11:02.342Z,15.50
2023-03-26T09:12:02.193Z,15.00
2023-03-26T09:13:02.200Z,17.10
2023-03-26T09:14:02.144Z,17.60
2023-03-26T09:15:02.199Z,15.70
2023-03-26T09:16:02.217Z,14.20
2023-03-26T09:17:02.170Z,15.70
2023-03-26T09:18:02.172Z,15.70
2023-03-26T09:19:02.135Z,17.70
2023-03-26T09:20:02.074Z,15.80
2023-03-26T09:21:02.116Z,14.60
2023-03-26T09:22:02.085Z,12.30
2023-03-26T09:23:02.106Z,15.20
2023-03-26T09:24:02.046Z,14.90
2023-03-26T09:25:02.036Z,16.10
2023-03-26T09:26:01.994Z,16.10
2023-03-26T09:27:02.034Z,16.90
2023-03-26T09:28:01.952Z,16.60
2023-03-26T09:29:02.147Z,15.90
2023-03-26T09:30:01.975Z,15.40
2023-03-26T09:31:01.967Z,13.10
2023-03-26T09:32:01.900Z,16.80
2023-03-26T09:33:02.009Z,15.80
2023-03-26T09:34:02.303Z,16.20
2023-03-26T09:35:01.900Z,15.80
2023-03-26T09:36:01.985Z,13.80
2023-03-26T09:37:01.965Z,14.30
2023-03-26T09:38:01.794Z,14.60
2023-03-26T09:39:01.901Z,16.80
2023-03-26T09:40:01.786Z,15.30
2023-03-26T09:41:01.846Z,16.90
2023-03-26T09:42:01.760Z,16.40
2023-03-26T09:43:01.748Z,14.50
2023-03-26T09:44:01.745Z,17.30
2023-03-26T09:45:01.722Z,18.40
2023-03-26T09:46:01.781Z,16.80
2023-03-26T09:47:01.759Z,20.40
2023-03-26T09:48:01.717Z,23.30
2023-03-26T09:49:01.674Z,19.30
2023-03-26T09:50:01.657Z,20.80
2023-03-26T09:51:01.666Z,22.90
2023-03-26T09:52:01.604Z,17.60
2023-03-26T09:53:01.756Z,20.00
2023-03-26T09:54:01.603Z,17.90
2023-03-26T09:55:01.593Z,22.60
2023-03-26T09:56:01.582Z,20.70
2023-03-26T09:57:01.596Z,19.60
2023-03-26T09:58:01.579Z,19.30
2023-03-26T09:59:01.607Z,18.70
2023-03-26T10:00:01.503Z,17.50
2023-03-26T10:01:01.562Z,19.00
2023-03-26T10:02:01.493Z,23.00
2023-03-26T10:03:01.504Z,20.00
2023-03-26T10:04:01.482Z,21.20
2023-03-26T10:05:01.608Z,18.20
2023-03-26T10:06:01.415Z,22.10
2023-03-26T10:07:01.478Z,19.10
2023-03-26T10:08:01.385Z,19.30
2023-03-26T10:09:01.426Z,17.00
2023-03-26T10:10:01.392Z,19.60
2023-03-26T10:11:01.505Z,16.80
2023-03-26T10:12:01.389Z,19.80
2023-03-26T10:13:13.597Z,21.20
2023-03-26T10:14:02.338Z,17.80
2023-03-26T10:15:01.347Z,18.80
2023-03-26T10:16:01.282Z,17.60
2023-03-26T10:17:01.474Z,18.50
2023-03-26T10:18:01.315Z,22.40
2023-03-26T10:19:01.265Z,24.30
2023-03-26T10:20:01.280Z,22.60
2023-03-26T10:21:01.269Z,22.10
2023-03-26T10:22:01.226Z,21.90
2023-03-26T10:23:01.247Z,23.80
2023-03-26T10:24:01.199Z,21.20
2023-03-26T10:25:01.209Z,24.20
2023-03-26T10:26:01.143Z,20.80
2023-03-26T10:27:10.192Z,20.20
2023-03-26T10:28:02.237Z,21.10
2023-03-26T10:29:01.150Z,21.70
2023-03-26T10:30:01.262Z,19.10
2023-03-26T10:31:01.218Z,20.00
2023-03-26T10:32:01.087Z,22.90
2023-03-26T10:33:01.149Z,24.90
2023-03-26T10:34:01.077Z,22.70
2023-03-26T10:35:01.074Z,23.60
2023-03-26T10:36:01.062Z,23.30
2023-03-26T10:37:01.027Z,20.70
2023-03-26T10:38:00.978Z,26.40
2023-03-26T10:39:01.031Z,21.20
2023-03-26T10:40:01.004Z,21.40
2023-03-26T10:41:01.004Z,22.00
2023-03-26T10:42:00.952Z,21.50
2023-03-26T10:43:00.955Z,25.80
2023-03-26T10:44:08.090Z,23.60
2023-03-26T10:45:02.033Z,26.40
2023-03-26T10:46:00.888Z,25.20
2023-03-26T10:47:00.919Z,25.50
2023-03-26T10:48:00.888Z,29.10
2023-03-26T10:49:00.905Z,24.20
2023-03-26T10:50:00.840Z,31.00
2023-03-26T10:51:00.865Z,25.70
2023-03-26T10:52:00.796Z,27.40
2023-03-26T10:53:00.836Z,28.70
2023-03-26T10:54:00.800Z,31.00
2023-03-26T10:55:00.768Z,27.10
2023-03-26T10:56:00.765Z,25.00
2023-03-26T10:57:00.895Z,26.70
2023-03-26T10:58:00.711Z,28.60
2023-03-26T10:59:00.745Z,28.00
2023-03-26T11:00:00.687Z,29.00
2023-03-26T11:01:00.722Z,24.80
2023-03-26T11:02:00.708Z,27.70
2023-03-26T11:03:00.822Z,28.30
2023-03-26T11:04:00.652Z,26.70
2023-03-26T11:05:00.671Z,28.90
2023-03-26T11:06:00.679Z,26.60
2023-03-26T11:07:00.657Z,28.10
2023-03-26T11:08:00.587Z,32.50
2023-03-26T11:09:00.650Z,30.20
2023-03-26T11:10:00.596Z,30.90
2023-03-26T11:11:00.566Z,29.30
2023-03-26T11:12:00.563Z,36.80
2023-03-26T11:13:01.732Z,27.60
2023-03-26T11:14:00.548Z,28.30
2023-03-26T11:15:00.577Z,34.50
2023-03-26T11:16:01.309Z,32.00
2023-03-26T11:17:01.273Z,36.00
2023-03-26T11:18:00.518Z,31.30
2023-03-26T11:19:00.462Z,32.30
2023-03-26T11:20:00.452Z,28.90
2023-03-26T11:21:18.667Z,28.60
2023-03-26T11:22:01.405Z,29.10
2023-03-26T11:23:00.446Z,28.40
2023-03-26T11:24:05.649Z,28.40
2023-03-26T11:25:02.442Z,31.60
2023-03-26T11:26:00.353Z,32.40
2023-03-26T11:27:15.769Z,34.30
2023-03-26T11:28:01.319Z,30.60
2023-03-26T11:29:04.198Z,34.20
2023-03-26T11:30:01.372Z,34.70
2023-03-26T11:31:00.511Z,31.50
2023-03-26T11:32:00.296Z,34.60
2023-03-26T11:33:00.356Z,31.10
2023-03-26T11:34:00.238Z,32.10
2023-03-26T11:35:00.287Z,29.90
2023-03-26T11:36:00.266Z,31.50
2023-03-26T11:37:00.257Z,29.80
2023-03-26T11:38:00.208Z,32.00
2023-03-26T11:39:00.322Z,32.90
2023-03-26T11:40:00.210Z,31.40
2023-03-26T11:41:00.198Z,28.30
2023-03-26T11:42:00.159Z,31.20
2023-03-26T11:43:00.160Z,31.90
2023-03-26T11:44:00.145Z,40.70
2023-03-26T11:45:00.240Z,31.60
2023-03-26T11:46:00.212Z,28.30
2023-03-26T11:47:00.121Z,30.50
2023-03-26T11:48:00.141Z,32.10
2023-03-26T11:49:00.118Z,31.40
2023-03-26T11:50:00.131Z,29.30
2023-03-26T11:51:00.121Z,31.20
2023-03-26T11:52:00.059Z,33.30
2023-03-26T11:53:00.015Z,31.10
2023-03-26T11:53:59.986Z,32.80
2023-03-26T11:55:00.014Z,31.60
2023-03-26T11:55:59.965Z,23.90
2023-03-26T11:57:05.120Z,32.50
2023-03-26T11:58:00.913Z,30.50
2023-03-26T11:58:59.970Z,32.80
2023-03-26T11:59:59.897Z,34.10
2023-03-26T12:00:59.936Z,29.90
2023-03-26T12:01:59.909Z,27.40
2023-03-26T12:02:59.986Z,34.80
2023-03-26T12:03:59.918Z,31.10
2023-03-26T12:04:59.854Z,34.50
2023-03-26T12:05:59.873Z,29.60
2023-03-26T12:06:59.842Z,31.30
2023-03-26T12:07:59.799Z,30.40
2023-03-26T12:08:59.935Z,31.90
2023-03-26T12:10:18.307Z,31.90
2023-03-26T12:11:00.775Z,30.20
2023-03-26T12:11:59.754Z,28.60
2023-03-26T12:12:59.736Z,28.10
2023-03-26T12:13:59.696Z,30.70
2023-03-26T12:14:59.845Z,33.60
2023-03-26T12:15:59.688Z,28.60
2023-03-26T12:16:59.749Z,37.00
2023-03-26T12:17:59.708Z,33.50
2023-03-26T12:18:59.660Z,31.00
2023-03-26T12:19:59.642Z,30.90
2023-03-26T12:20:59.671Z,26.80
2023-03-26T12:21:59.588Z,28.30
2023-03-26T12:22:59.652Z,29.00
2023-03-26T12:23:59.587Z,27.10
2023-03-26T12:24:59.625Z,24.60
2023-03-26T12:25:59.556Z,30.30
2023-03-26T12:26:59.578Z,27.20
2023-03-26T12:27:59.511Z,27.00
2023-03-26T12:28:59.548Z,26.70
2023-03-26T12:29:59.506Z,28.00
2023-03-26T12:30:59.523Z,32.40
2023-03-26T12:31:59.508Z,25.30
2023-03-26T12:32:59.550Z,32.20
2023-03-26T12:33:59.739Z,25.80
2023-03-26T12:34:59.740Z,29.80
2023-03-26T12:35:59.414Z,25.50
2023-03-26T12:36:59.524Z,27.50
2023-03-26T12:37:59.395Z,26.00
2023-03-26T12:39:15.940Z,29.10
2023-03-26T12:40:07.270Z,26.10
2023-03-26T12:41:00.419Z,24.90
2023-03-26T12:44:43.078Z,26.60
2023-03-26T12:44:48.982Z,25.90
2023-03-26T12:44:49.730Z,29.70
2023-03-26T12:45:01.039Z,30.90
2023-03-26T12:47:26.450Z,25.30
2023-03-26T12:48:00.847Z,25.00
2023-03-26T12:48:04.211Z,22.80
2023-03-26T12:48:59.595Z,24.20
2023-03-26T12:49:59.340Z,27.10
2023-03-26T12:50:59.286Z,26.90
2023-03-26T12:51:59.204Z,26.60
2023-03-26T12:52:59.198Z,28.50
2023-03-26T12:53:59.152Z,27.70